Time;durP1;ratioP1;P1;durP2;ratioP2;P2;SDS_P1;SDS_P2;PMS_P1;PMS_P2;Temp;Humidity;BMP_temperature;BMP_pressure;BME280_temperature;BME280_humidity;BME280_pressure;Samples;Min_cycle;Max_cycle;Signal;HPM_P1;HPM_P2
2023/03/10 00:00:42;;;;;;;4.93;2.67;;;;;;;18.04;46.91;95487.16;5025251;28;20207;-86
2023/03/10 00:03:09;;;;;;;3.13;2.77;;;;;;;18.29;46.90;95526.38;5015667;28;20202;-86
2023/03/10 00:05:38;;;;;;;2.63;2.40;;;;;;;19.15;46.89;95668.03;5017516;28;20219;-86
2023/03/10 00:08:05;;;;;;;3.10;2.80;;;;;;;18.78;46.84;95602.38;5033690;28;20231;-86
2023/03/10 00:10:31;;;;;;;3.00;2.70;;;;;;;19.15;46.83;95665.50;5033458;28;20225;-86
2023/03/10 00:12:58;;;;;;;2.90;2.60;;;;;;;19.15;47.27;95646.81;5034032;28;20326;-86
2023/03/10 00:15:24;;;;;;;3.30;3.00;;;;;;;18.72;47.48;95576.00;5033290;28;20205;-86
2023/03/10 00:17:54;;;;;;;3.10;2.80;;;;;;;19.15;47.09;95660.41;5024542;28;20309;-85
2023/03/10 00:20:21;;;;;;;3.00;2.70;;;;;;;17.13;47.00;95304.09;5012188;28;20273;-85
2023/03/10 00:22:48;;;;;;;3.20;2.90;;;;;;;18.10;47.05;95471.97;5017079;28;20673;-86
2023/03/10 00:25:14;;;;;;;3.10;2.80;;;;;;;19.14;47.03;95653.59;4987123;28;20202;-86
2023/03/10 00:27:41;;;;;;;3.37;2.70;;;;;;;19.15;46.92;95651.91;5033873;28;20310;-85
2023/03/10 00:30:08;;;;;;;3.07;2.70;;;;;;;18.89;46.72;95589.75;5033254;28;20218;-86
2023/03/10 00:32:35;;;;;;;3.13;2.63;;;;;;;18.51;47.07;95540.19;5033256;28;20202;-86
2023/03/10 00:35:01;;;;;;;3.50;2.97;;;;;;;19.16;46.85;95646.81;5033288;28;20206;-86
2023/03/10 00:37:28;;;;;;;2.77;2.57;;;;;;;19.16;46.67;95643.44;5033897;28;20608;-85
2023/03/10 00:39:55;;;;;;;3.27;2.97;;;;;;;18.58;47.26;95539.41;5034205;28;20212;-85
2023/03/10 00:42:21;;;;;;;3.20;2.90;;;;;;;18.88;47.00;95576.16;5015031;28;20234;-85
2023/03/10 00:44:48;;;;;;;3.27;2.97;;;;;;;18.63;47.44;95538.63;5032901;28;20665;-85
2023/03/10 00:47:14;;;;;;;3.03;2.73;;;;;;;17.17;46.73;95282.16;5000855;28;20637;-86
2023/03/10 00:49:41;;;;;;;3.40;3.10;;;;;;;17.80;46.44;95386.94;5032654;28;20202;-84
2023/03/10 00:52:07;;;;;;;2.50;2.30;;;;;;;18.83;46.86;95548.97;5016458;28;20217;-86
2023/03/10 00:54:34;;;;;;;3.30;2.80;;;;;;;19.15;46.82;95611.16;5002305;28;20241;-86
2023/03/10 00:57:01;;;;;;;3.07;2.77;;;;;;;18.78;46.97;95542.97;5018411;28;20771;-86
2023/03/10 00:59:27;;;;;;;3.10;2.80;;;;;;;19.15;47.04;95595.88;4999968;28;20220;-86
2023/03/10 01:02:06;;;;;;;3.80;2.90;;;;;;;19.14;46.62;95581.47;5032792;28;20200;-85
2023/03/10 01:04:32;;;;;;;3.40;3.10;;;;;;;19.15;46.95;95575.50;5032596;28;20332;-85
2023/03/10 01:06:59;;;;;;;3.13;2.83;;;;;;;18.17;47.03;95406.78;5033609;28;20225;-86
2023/03/10 01:09:25;;;;;;;3.27;2.97;;;;;;;19.15;46.67;95571.28;5032609;28;20202;-85
2023/03/10 01:11:52;;;;;;;2.90;2.60;;;;;;;19.02;46.89;95535.53;5029062;28;20306;-86
2023/03/10 01:14:18;;;;;;;3.30;2.60;;;;;;;19.14;47.03;95551.78;5016536;28;20574;-84
2023/03/10 01:16:45;;;;;;;3.30;3.00;;;;;;;18.40;47.37;95422.25;5015555;28;20221;-86
2023/03/10 01:19:11;;;;;;;3.67;3.13;;;;;;;18.13;46.54;95372.88;5031017;28;20748;-86
2023/03/10 01:21:38;;;;;;;3.00;2.70;;;;;;;18.54;46.90;95438.47;4998394;28;20253;-85
2023/03/10 01:24:05;;;;;;;3.10;2.80;;;;;;;18.73;46.92;95464.06;5016355;28;20285;-85
2023/03/10 01:26:32;;;;;;;3.37;2.90;;;;;;;18.32;46.84;95391.66;5015682;28;20233;-86
2023/03/10 01:28:58;;;;;;;3.27;2.97;;;;;;;18.74;46.97;95459.84;5018892;28;20202;-86
2023/03/10 01:31:25;;;;;;;3.07;2.77;;;;;;;19.13;46.85;95522.03;5000308;28;20595;-85
2023/03/10 01:33:52;;;;;;;2.97;2.67;;;;;;;19.13;47.12;95523.75;5032597;28;20232;-86
2023/03/10 01:36:20;;;;;;;2.83;2.63;;;;;;;18.49;46.80;95412.16;5033315;28;20217;-86
2023/03/10 01:38:47;;;;;;;3.33;2.97;;;;;;;18.77;47.01;95458.16;5015661;28;20208;-86
2023/03/10 01:41:14;;;;;;;2.90;2.60;;;;;;;18.24;46.75;95355.16;5020387;28;20241;-85
2023/03/10 01:43:41;;;;;;;3.40;3.07;;;;;;;18.57;46.92;95405.44;5015491;28;20255;-86
2023/03/10 01:46:26;;;;;;;3.50;2.90;;;;;;;19.13;46.75;95496.59;5015461;28;20661;-85
2023/03/10 01:48:58;;;;;;;3.30;3.00;;;;;;;18.52;47.05;95389.28;5031916;28;20236;-86
2023/03/10 01:51:34;;;;;;;3.80;2.97;;;;;;;18.55;46.82;95395.25;4999255;28;20221;-85
2023/03/10 01:54:02;;;;;;;3.20;2.90;;;;;;;18.81;46.90;95441.22;5030605;28;20625;-85
2023/03/10 01:56:29;;;;;;;3.40;3.10;;;;;;;19.03;47.08;95473.59;5015570;28;20258;-85
2023/03/10 01:58:55;;;;;;;3.13;2.80;;;;;;;18.18;46.89;95319.53;5013858;28;20288;-86
2023/03/10 02:01:22;;;;;;;3.77;3.20;;;;;;;18.23;46.36;95320.38;5012033;28;20289;-86
2023/03/10 02:04:26;;;;;;;3.10;2.80;;;;;;;19.14;46.93;95469.44;5022553;28;20202;-86
2023/03/10 02:06:53;;;;;;;3.77;3.13;;;;;;;18.53;46.85;95368.13;5023811;28;20649;-86
2023/03/10 02:09:19;;;;;;;3.53;2.90;;;;;;;17.91;47.02;95261.72;5012059;28;20240;-86
2023/03/10 02:11:46;;;;;;;3.47;3.07;;;;;;;18.59;46.89;95360.53;5014514;28;20213;-86
2023/03/10 02:14:13;;;;;;;3.37;3.03;;;;;;;18.76;46.86;95392.00;5026750;28;20206;-86
2023/03/10 02:16:39;;;;;;;3.37;3.07;;;;;;;18.77;46.83;95394.53;5015533;28;20309;-86
2023/03/10 02:19:10;;;;;;;3.20;2.70;;;;;;;19.13;46.85;95463.50;5016427;28;20206;-86
2023/03/10 02:21:43;;;;;;;3.30;3.00;;;;;;;19.12;46.73;95443.97;5013098;28;20202;-87
2023/03/10 02:24:30;;;;;;;4.27;3.13;;;;;;;19.13;46.95;95445.66;5014950;28;20205;-86
2023/03/10 02:27:02;;;;;;;4.33;2.97;;;;;;;19.09;46.68;95427.81;5012344;28;20224;-85
2023/03/10 02:29:40;;;;;;;3.70;3.30;;;;;;;19.14;46.80;95434.66;4998473;28;20251;-87
2023/03/10 02:32:23;;;;;;;3.37;3.07;;;;;;;19.14;46.78;95419.38;5014916;28;20217;-86
2023/03/10 02:34:50;;;;;;;3.23;2.93;;;;;;;16.43;46.77;94960.22;4990337;28;20255;-86
2023/03/10 02:37:27;;;;;;;3.67;3.20;;;;;;;17.80;46.71;95189.63;5031123;28;20356;-86
2023/03/10 02:39:54;;;;;;;3.53;3.20;;;;;;;17.99;46.93;95221.97;5013512;28;20205;-85
2023/03/10 02:42:25;;;;;;;4.20;3.00;;;;;;;19.14;46.71;95411.75;5026733;28;20195;-86
2023/03/10 02:44:52;;;;;;;4.07;2.93;;;;;;;18.69;46.72;95330.06;4998831;28;20238;-86
2023/03/10 02:47:19;;;;;;;3.03;2.70;;;;;;;17.82;46.91;95180.34;4998865;28;20287;-86
2023/03/10 02:49:45;;;;;;;3.23;2.73;;;;;;;18.79;46.90;95336.91;4998913;28;20297;-86
2023/03/10 02:52:28;;;;;;;2.97;2.63;;;;;;;18.73;46.88;95326.69;5030774;28;20224;-86
2023/03/10 02:54:55;;;;;;;3.37;3.07;;;;;;;19.14;46.96;95396.47;5002012;28;20303;-86
2023/03/10 02:57:21;;;;;;;3.27;2.97;;;;;;;19.13;46.89;95392.19;5027210;28;20768;-86
2023/03/10 02:59:48;;;;;;;3.33;3.03;;;;;;;19.13;46.97;95401.56;5016651;28;20256;-86
2023/03/10 03:02:14;;;;;;;3.30;3.00;;;;;;;18.78;46.63;95334.34;5030695;28;20201;-86
2023/03/10 03:04:41;;;;;;;3.43;3.07;;;;;;;18.67;46.79;95311.41;5015772;28;20288;-86
2023/03/10 03:07:07;;;;;;;3.23;2.93;;;;;;;19.13;46.64;95378.66;5030801;28;20648;-81
2023/03/10 03:09:34;;;;;;;3.30;3.00;;;;;;;17.48;46.79;95098.84;5030159;28;20209;-86
2023/03/10 03:12:00;;;;;;;3.30;2.87;;;;;;;18.71;46.95;95312.28;5034037;28;20229;-86
2023/03/10 03:14:27;;;;;;;3.20;2.90;;;;;;;18.20;46.82;95232.28;5036491;28;20251;-86
2023/03/10 03:16:54;;;;;;;3.50;3.10;;;;;;;19.13;46.73;95394.75;4988994;28;20222;-86
2023/03/10 03:19:20;;;;;;;2.90;2.63;;;;;;;18.44;47.00;95279.06;5025258;28;20224;-86
2023/03/10 03:21:48;;;;;;;3.37;3.03;;;;;;;17.52;47.07;95115.81;5009525;28;20288;-86
2023/03/10 03:24:16;;;;;;;3.53;3.23;;;;;;;19.13;46.87;95394.75;5030381;28;20205;-86
2023/03/10 03:26:43;;;;;;;3.37;3.07;;;;;;;19.13;47.09;95384.56;5031601;28;20582;-86
2023/03/10 03:29:10;;;;;;;3.33;3.03;;;;;;;18.42;46.70;95273.97;5030314;28;20259;-86
2023/03/10 03:31:37;;;;;;;4.30;3.10;;;;;;;18.47;46.84;95281.63;5001908;28;20588;-86
2023/03/10 03:34:04;;;;;;;3.63;2.97;;;;;;;18.86;46.78;95345.44;5029946;28;20209;-85
2023/03/10 03:36:30;;;;;;;3.03;2.73;;;;;;;18.96;46.46;95357.34;5031786;28;20225;-85
2023/03/10 03:38:57;;;;;;;3.13;2.73;;;;;;;18.48;47.17;95273.13;5029968;28;20202;-86
2023/03/10 03:41:23;;;;;;;3.20;2.90;;;;;;;18.56;46.56;95282.50;5013769;28;20301;-86
2023/03/10 03:43:50;;;;;;;3.37;2.90;;;;;;;19.14;46.87;95380.34;4996834;28;20309;-86
2023/03/10 03:46:16;;;;;;;3.33;3.03;;;;;;;18.82;46.75;95338.59;5024962;28;20303;-86
2023/03/10 03:48:43;;;;;;;3.10;2.77;;;;;;;19.14;46.83;95395.59;5011487;28;20292;-86
2023/03/10 03:51:10;;;;;;;3.20;2.90;;;;;;;19.14;46.22;95404.13;5031240;28;20312;-85
2023/03/10 03:53:36;;;;;;;3.10;2.80;;;;;;;17.60;46.85;95134.47;5028422;28;20573;-86
2023/03/10 03:56:03;;;;;;;3.83;3.50;;;;;;;19.15;46.66;95405.81;5001995;28;20205;-86
2023/03/10 03:58:29;;;;;;;3.27;2.97;;;;;;;18.09;46.57;95233.06;5031432;28;20205;-84
2023/03/10 04:00:56;;;;;;;3.30;3.00;;;;;;;19.15;46.77;95410.91;4997800;28;20230;-86
2023/03/10 04:03:22;;;;;;;3.40;3.10;;;;;;;18.88;46.94;95371.72;5027114;28;20212;-86
2023/03/10 04:05:49;;;;;;;3.53;3.20;;;;;;;18.80;46.91;95353.84;5016279;28;20209;-84
2023/03/10 04:08:16;;;;;;;3.13;2.87;;;;;;;17.95;46.90;95219.41;5017245;28;20229;-86
2023/03/10 04:10:48;;;;;;;3.93;3.30;;;;;;;19.15;46.71;95415.13;4996618;28;20210;-86
2023/03/10 04:13:15;;;;;;;4.80;3.50;;;;;;;18.84;47.12;95373.41;5034680;28;20202;-86
2023/03/10 04:15:41;;;;;;;3.87;2.97;;;;;;;18.85;46.43;95382.72;5029753;28;20623;-86
2023/03/10 04:18:09;;;;;;;3.47;3.10;;;;;;;18.27;46.96;95279.75;5024798;28;20229;-86
2023/03/10 04:20:36;;;;;;;3.10;2.80;;;;;;;19.15;46.69;95428.72;5019000;28;20210;-86
2023/03/10 04:23:03;;;;;;;3.50;3.03;;;;;;;18.83;46.80;95353.88;5019195;28;20277;-86
2023/03/10 04:25:29;;;;;;;4.10;3.00;;;;;;;18.54;46.83;95308.78;5001325;28;20248;-86
2023/03/10 04:27:56;;;;;;;3.30;3.00;;;;;;;18.19;46.67;95250.06;5021291;28;20718;-86
2023/03/10 04:30:28;;;;;;;3.13;2.80;;;;;;;19.14;46.49;95415.97;5029636;28;20209;-87
2023/03/10 04:33:00;;;;;;;3.10;2.80;;;;;;;19.12;46.99;95417.66;5030886;28;20254;-86
2023/03/10 04:35:27;;;;;;;3.50;3.20;;;;;;;19.14;46.77;95439.75;5021641;28;20578;-86
2023/03/10 04:37:54;;;;;;;3.40;2.80;;;;;;;18.80;46.83;95373.38;5013188;28;20264;-86
2023/03/10 04:40:20;;;;;;;3.37;3.07;;;;;;;18.88;46.72;95371.72;5029366;28;20234;-86
2023/03/10 04:42:47;;;;;;;2.93;2.73;;;;;;;19.14;46.75;95418.53;5029323;28;20206;-85
2023/03/10 04:45:14;;;;;;;3.00;2.70;;;;;;;18.11;46.63;95234.75;5029663;28;20233;-86
2023/03/10 04:47:40;;;;;;;3.10;2.80;;;;;;;19.14;47.14;95427.03;5022836;28;20228;-86
2023/03/10 04:50:07;;;;;;;3.07;2.83;;;;;;;18.71;46.88;95348.72;5021644;28;20205;-86
2023/03/10 04:52:34;;;;;;;3.50;3.20;;;;;;;19.09;46.85;95425.28;5011840;28;20748;-84
2023/03/10 04:55:00;;;;;;;3.10;2.80;;;;;;;19.14;46.92;95442.31;5033447;28;20204;-86
2023/03/10 04:57:27;;;;;;;3.07;2.77;;;;;;;19.15;46.87;95448.22;5034000;28;20229;-86
2023/03/10 04:59:53;;;;;;;3.53;3.23;;;;;;;18.16;46.94;95289.03;5039253;28;20209;-86
2023/03/10 05:02:20;;;;;;;2.77;2.50;;;;;;;19.15;46.66;95458.41;5032969;28;20283;-86
2023/03/10 05:04:47;;;;;;;3.37;3.07;;;;;;;18.59;46.71;95360.53;5034126;28;20202;-86
2023/03/10 05:07:13;;;;;;;2.90;2.70;;;;;;;18.75;46.69;95378.44;5032828;28;20224;-86
2023/03/10 05:09:40;;;;;;;2.90;2.70;;;;;;;19.16;46.71;95449.94;5023386;28;20209;-86
2023/03/10 05:12:08;;;;;;;3.27;2.97;;;;;;;18.16;46.69;95280.53;5033727;28;20689;-86
2023/03/10 05:14:36;;;;;;;3.80;2.70;;;;;;;18.84;46.70;95391.22;5017668;28;20236;-85
2023/03/10 05:17:02;;;;;;;2.90;2.67;;;;;;;19.15;46.75;95441.44;5022923;28;20255;-86
2023/03/10 05:19:29;;;;;;;2.97;2.70;;;;;;;19.16;46.63;95432.13;5036272;28;20205;-86
2023/03/10 05:21:55;;;;;;;3.10;2.80;;;;;;;19.16;46.35;95435.50;5040001;28;20202;-86
2023/03/10 05:24:22;;;;;;;3.43;2.90;;;;;;;18.88;46.41;95392.06;5032586;28;20293;-86
2023/03/10 05:26:48;;;;;;;2.97;2.67;;;;;;;19.15;46.83;95441.44;5032132;28;20225;-86
2023/03/10 05:29:15;;;;;;;2.70;2.50;;;;;;;18.28;46.85;95293.31;5033335;28;20232;-86
2023/03/10 05:31:42;;;;;;;3.43;3.00;;;;;;;18.23;46.66;95283.97;5030239;28;20221;-87
2023/03/10 05:34:08;;;;;;;2.70;2.50;;;;;;;18.80;46.61;95383.56;5032655;28;20205;-86
2023/03/10 05:36:35;;;;;;;2.83;2.60;;;;;;;19.15;46.24;95438.91;5015778;28;20228;-86
2023/03/10 05:39:01;;;;;;;3.23;2.93;;;;;;;18.60;46.79;95349.50;5024062;28;20657;-86
2023/03/10 05:41:28;;;;;;;2.83;2.57;;;;;;;18.86;46.46;95379.34;5007944;28;20224;-86
2023/03/10 05:43:54;;;;;;;2.73;2.40;;;;;;;18.83;46.68;95358.97;5037010;28;20227;-86
2023/03/10 05:46:21;;;;;;;2.70;2.37;;;;;;;19.16;46.39;95399.84;5015440;28;20249;-86
2023/03/10 05:48:48;;;;;;;2.63;2.43;;;;;;;18.33;46.85;95265.38;5036045;28;20211;-86
2023/03/10 05:51:14;;;;;;;3.30;2.60;;;;;;;18.46;46.75;95287.53;5015858;28;20202;-86
2023/03/10 05:53:41;;;;;;;2.53;2.33;;;;;;;19.16;46.74;95399.03;5013236;28;20217;-86
2023/03/10 05:56:12;;;;;;;2.87;2.57;;;;;;;17.66;46.44;95142.13;5032882;28;20259;-86
2023/03/10 05:58:39;;;;;;;3.20;2.90;;;;;;;17.94;46.55;95185.50;4991217;28;20297;-84
2023/03/10 06:01:06;;;;;;;2.70;2.50;;;;;;;18.68;46.80;95299.53;5011715;28;20202;-86
2023/03/10 06:03:32;;;;;;;2.60;2.40;;;;;;;18.84;46.81;95325.06;4995422;28;20267;-86
2023/03/10 06:05:59;;;;;;;3.03;2.43;;;;;;;18.47;46.68;95251.94;5037723;28;20296;-86
2023/03/10 06:08:29;;;;;;;2.70;2.50;;;;;;;18.79;46.75;95301.28;5034584;28;20252;-86
2023/03/10 06:10:56;;;;;;;2.37;2.17;;;;;;;18.23;46.65;95211.94;5019151;28;20669;-86
2023/03/10 06:13:23;;;;;;;3.07;2.70;;;;;;;17.52;46.56;95086.19;5014804;28;20702;-85
2023/03/10 06:15:51;;;;;;;2.70;2.40;;;;;;;18.56;46.72;95253.69;5030230;28;20240;-85
2023/03/10 06:18:17;;;;;;;2.77;2.40;;;;;;;18.39;46.73;95228.19;5016295;28;20209;-86
2023/03/10 06:20:44;;;;;;;2.67;2.47;;;;;;;18.27;46.81;95197.56;4999346;28;20703;-85
2023/03/10 06:23:11;;;;;;;2.67;2.27;;;;;;;19.18;46.77;95348.94;4987565;28;20650;-85
2023/03/10 06:25:37;;;;;;;2.70;2.50;;;;;;;17.08;46.82;94990.28;5012067;28;20210;-85
2023/03/10 06:28:04;;;;;;;2.63;2.40;;;;;;;17.75;46.73;95099.03;4988205;28;20221;-86
2023/03/10 06:30:34;;;;;;;2.33;2.13;;;;;;;19.19;46.56;95337.94;5016106;28;20213;-86
2023/03/10 06:33:01;;;;;;;2.67;2.47;;;;;;;19.18;46.77;95347.25;5028986;28;20407;-85
2023/03/10 06:35:28;;;;;;;2.73;2.53;;;;;;;18.18;46.77;95172.94;5033230;28;20273;-85
2023/03/10 06:37:54;;;;;;;2.30;2.10;;;;;;;18.82;46.77;95292.78;4986281;28;20235;-85
2023/03/10 06:40:21;;;;;;;2.40;2.20;;;;;;;18.23;46.53;95173.81;5015597;28;20224;-85
2023/03/10 06:42:47;;;;;;;2.60;2.40;;;;;;;17.95;46.59;95127.94;5018334;28;20584;-86
2023/03/10 06:45:15;;;;;;;2.67;2.47;;;;;;;18.26;46.55;95195.84;4991364;28;20236;-85
2023/03/10 06:47:43;;;;;;;2.30;2.10;;;;;;;18.14;46.71;95170.38;4985042;28;20233;-86
2023/03/10 06:50:10;;;;;;;2.57;2.37;;;;;;;17.76;46.77;95101.56;4999132;28;20322;-86
2023/03/10 06:52:36;;;;;;;2.60;2.40;;;;;;;18.16;46.47;95182.28;5012459;28;20307;-85
2023/03/10 06:55:03;;;;;;;2.43;2.20;;;;;;;18.64;46.86;95252.88;5015608;28;20638;-86
2023/03/10 06:57:30;;;;;;;2.40;2.20;;;;;;;19.19;46.58;95346.41;5029371;28;20237;-85
2023/03/10 06:59:56;;;;;;;2.37;2.17;;;;;;;18.62;47.16;95246.91;5031623;28;20255;-86
2023/03/10 07:02:23;;;;;;;2.47;2.27;;;;;;;18.53;46.72;95226.53;5031522;28;20668;-85
2023/03/10 07:04:49;;;;;;;2.43;2.00;;;;;;;19.19;46.89;95343.03;4998628;28;20212;-84
2023/03/10 07:07:16;;;;;;;2.60;2.40;;;;;;;18.94;46.41;95293.72;5031203;28;20267;-86
2023/03/10 07:09:44;;;;;;;2.20;2.00;;;;;;;18.87;46.64;95284.38;5009677;28;20210;-85
2023/03/10 07:12:11;;;;;;;1.93;1.83;;;;;;;16.62;46.74;94904.59;5014807;28;20217;-85
2023/03/10 07:14:38;;;;;;;2.93;2.23;;;;;;;18.27;46.64;95183.16;5014900;28;20237;-86
2023/03/10 07:17:04;;;;;;;2.43;2.00;;;;;;;19.19;46.96;95343.84;5030936;28;20231;-86
2023/03/10 07:19:31;;;;;;;2.17;2.00;;;;;;;19.19;46.49;95337.94;5018567;28;20224;-86
2023/03/10 07:21:57;;;;;;;2.30;2.10;;;;;;;18.13;46.92;95149.22;5030775;28;20206;-86
2023/03/10 07:24:24;;;;;;;2.13;1.93;;;;;;;18.34;46.59;95173.88;5030749;28;20205;-86
2023/03/10 07:26:51;;;;;;;2.20;2.00;;;;;;;19.20;46.94;95319.25;5015824;28;20675;-85
2023/03/10 07:29:17;;;;;;;2.20;2.00;;;;;;;12.63;46.58;94218.66;5030737;28;20244;-86
2023/03/10 07:31:44;;;;;;;1.97;1.80;;;;;;;18.00;46.74;95122.03;5019249;28;20259;-85
2023/03/10 07:34:11;;;;;;;2.07;1.97;;;;;;;18.79;46.39;95252.06;5030579;28;20212;-86
2023/03/10 07:36:37;;;;;;;2.10;1.83;;;;;;;16.72;46.15;94899.59;5025724;28;20255;-85
2023/03/10 07:39:04;;;;;;;2.53;2.10;;;;;;;19.20;46.30;95314.16;5030652;28;20205;-86
2023/03/10 07:41:30;;;;;;;2.00;1.90;;;;;;;18.85;46.88;95254.66;5011234;28;20213;-86
2023/03/10 07:43:57;;;;;;;1.77;1.67;;;;;;;18.07;46.68;95116.16;5010899;28;20197;-85
2023/03/10 07:46:23;;;;;;;2.33;2.13;;;;;;;19.20;46.61;95306.53;5011113;28;20218;-84
2023/03/10 07:48:51;;;;;;;1.80;1.70;;;;;;;19.20;46.56;95301.44;5011281;28;20226;-86
2023/03/10 07:51:18;;;;;;;1.90;1.80;;;;;;;19.20;46.59;95299.75;5033458;28;20266;-85
2023/03/10 07:53:45;;;;;;;2.23;2.07;;;;;;;18.92;46.96;95241.13;5004554;28;20313;-84
2023/03/10 07:58:51;;;;;;;2.07;1.93;;;;;;;18.36;46.57;95146.78;5004753;28;20210;-93
2023/03/10 08:01:19;;;;;;;2.00;1.90;;;;;;;18.45;46.57;95156.16;4957036;28;20560;-92
2023/03/10 08:03:45;;;;;;;4.37;1.60;;;;;;;17.67;46.46;95037.16;4959982;28;20202;-92
2023/03/10 08:06:19;;;;;;;1.83;1.73;;;;;;;18.51;46.58;95182.47;4959806;28;20199;-92
2023/03/10 08:08:46;;;;;;;2.37;2.00;;;;;;;18.06;46.34;95129.66;4937839;28;20212;-93
2023/03/10 08:11:12;;;;;;;1.87;1.77;;;;;;;17.56;46.49;95003.28;4936689;29;20644;-93
2023/03/10 08:13:44;;;;;;;2.30;2.10;;;;;;;18.20;46.53;95112.81;4985884;28;20245;-92
2023/03/10 08:16:11;;;;;;;2.07;1.97;;;;;;;18.30;47.00;95146.75;4942596;28;20208;-93
2023/03/10 08:18:37;;;;;;;2.27;2.07;;;;;;;18.97;46.67;95247.91;4940186;28;20403;-92
2023/03/10 08:21:05;;;;;;;2.00;1.80;;;;;;;17.87;46.34;95056.75;4973445;28;20207;-93
2023/03/10 08:23:32;;;;;;;1.97;1.80;;;;;;;17.83;46.62;95051.66;4945047;28;20276;-92
2023/03/10 08:26:04;;;;;;;1.90;1.80;;;;;;;18.48;46.47;95172.28;4959355;28;20216;-94
2023/03/10 08:28:32;;;;;;;1.90;1.77;;;;;;;15.45;46.49;94656.38;4942406;29;20255;-92
2023/03/10 08:30:58;;;;;;;2.23;2.00;;;;;;;18.39;46.71;95171.38;4930664;28;20236;-93
2023/03/10 08:33:30;;;;;;;1.80;1.70;;;;;;;17.89;46.39;95074.56;4937596;29;20228;-94
2023/03/10 08:36:08;;;;;;;1.80;1.70;;;;;;;18.24;46.68;95136.56;4956695;28;20212;-94
2023/03/10 08:38:35;;;;;;;1.80;1.70;;;;;;;17.69;46.57;95045.66;4941293;29;20251;-93
2023/03/10 08:41:15;;;;;;;1.90;1.80;;;;;;;18.16;46.73;95121.28;4951007;28;20216;-93
2023/03/10 08:43:42;;;;;;;1.97;1.77;;;;;;;17.87;46.49;95059.31;4968252;28;20204;-94
2023/03/10 08:46:08;;;;;;;1.80;1.70;;;;;;;18.98;46.53;95257.25;4975425;28;20652;-94
2023/03/10 08:48:35;;;;;;;1.80;1.70;;;;;;;18.79;46.50;95250.38;4943121;29;20235;-93
2023/03/10 08:51:02;;;;;;;1.80;1.70;;;;;;;18.31;46.48;95150.13;4958359;28;20212;-94
2023/03/10 08:53:29;;;;;;;1.80;1.70;;;;;;;17.94;46.59;95083.88;4960714;28;20219;-93
2023/03/10 08:55:56;;;;;;;2.00;1.87;;;;;;;18.35;46.49;95128.97;4951107;28;20304;-93
2023/03/10 08:58:23;;;;;;;1.70;1.60;;;;;;;18.06;46.38;95128.84;4940747;29;20224;-93
2023/03/10 09:00:50;;;;;;;1.70;1.60;;;;;;;17.75;46.67;95046.53;4942877;28;20616;-93
2023/03/10 09:03:16;;;;;;;2.07;1.93;;;;;;;17.39;46.62;94990.47;4941097;29;20208;-93
2023/03/10 09:05:43;;;;;;;1.70;1.60;;;;;;;18.34;46.70;95140.81;4949586;28;20232;-94
2023/03/10 09:08:10;;;;;;;1.90;1.80;;;;;;;18.13;46.46;95110.22;4944204;28;20243;-93
2023/03/10 09:10:37;;;;;;;2.00;1.90;;;;;;;18.23;46.57;95137.38;4941536;29;20208;-93
2023/03/10 09:13:03;;;;;;;1.60;1.50;;;;;;;18.32;46.63;95144.22;4960098;28;20243;-93
2023/03/10 09:15:40;;;;;;;1.80;1.70;;;;;;;17.50;46.38;94995.63;4943823;29;20212;-93
2023/03/10 09:18:07;;;;;;;1.97;1.80;;;;;;;18.40;46.45;95150.19;4945333;28;20224;-93
2023/03/10 09:20:37;;;;;;;1.60;1.50;;;;;;;18.59;46.46;95172.31;4940552;29;20204;-93
2023/03/10 09:23:03;;;;;;;1.67;1.57;;;;;;;18.55;46.60;95168.91;4941335;28;20222;-93
2023/03/10 09:25:30;;;;;;;1.70;1.60;;;;;;;18.26;46.62;95146.72;4959139;28;20211;-95
2023/03/10 09:27:57;;;;;;;1.90;1.80;;;;;;;18.55;46.44;95178.22;4950674;28;20647;-94
2023/03/10 09:30:23;;;;;;;1.80;1.70;;;;;;;18.53;46.49;95174.84;4940449;29;20220;-93
2023/03/10 09:32:50;;;;;;;1.67;1.57;;;;;;;18.33;46.73;95140.81;4950404;28;20224;-91
2023/03/10 09:35:17;;;;;;;2.03;1.87;;;;;;;18.45;46.58;95176.50;4938869;28;20211;-94
2023/03/10 09:37:44;;;;;;;1.70;1.60;;;;;;;17.93;46.71;95076.25;4944900;28;20235;-93
2023/03/10 09:40:16;;;;;;;1.93;1.83;;;;;;;17.42;46.55;94980.34;4942756;28;20230;-94
2023/03/10 09:42:46;;;;;;;1.60;1.50;;;;;;;19.22;46.30;95275.13;4940570;29;20225;-92
2023/03/10 09:45:20;;;;;;;1.60;1.50;;;;;;;17.68;46.61;95041.44;4952084;28;20260;-93
2023/03/10 09:48:02;;;;;;;1.70;1.60;;;;;;;19.21;46.47;95275.97;4965680;28;20223;-93
2023/03/10 09:50:41;;;;;;;1.70;1.60;;;;;;;19.22;46.25;95279.38;4975512;28;20215;-93
2023/03/10 09:53:26;;;;;;;1.93;1.83;;;;;;;19.22;46.42;95279.38;4961650;28;20230;-94
2023/03/10 09:55:53;;;;;;;1.50;1.40;;;;;;;18.75;46.68;95204.56;4974907;28;20266;-92
2023/03/10 09:58:30;;;;;;;2.03;1.90;;;;;;;17.68;46.45;95066.81;4958754;28;20231;-93
2023/03/10 10:00:57;;;;;;;1.50;1.40;;;;;;;18.41;46.58;95159.53;4958770;28;20210;-93
2023/03/10 10:03:33;;;;;;;1.70;1.60;;;;;;;18.38;46.61;95165.44;4939314;29;20204;-93
2023/03/10 10:06:20;;;;;;;1.60;1.50;;;;;;;18.07;46.37;95161.03;4943594;28;20200;-93
2023/03/10 10:08:54;;;;;;;1.50;1.40;;;;;;;18.06;46.35;95123.75;4958325;28;20250;-93
2023/03/10 10:11:30;;;;;;;2.00;1.90;;;;;;;18.85;46.49;95298.75;4969386;28;20217;-93
2023/03/10 10:14:15;;;;;;;1.50;1.40;;;;;;;19.22;46.42;95305.69;4938827;28;20224;-93
2023/03/10 10:17:12;;;;;;;1.60;1.50;;;;;;;19.22;46.48;95303.13;4989301;28;20292;-93
2023/03/10 10:19:39;;;;;;;1.67;1.57;;;;;;;18.45;46.37;95196.84;4972307;28;20267;-93
2023/03/10 10:22:13;;;;;;;1.60;1.50;;;;;;;18.81;46.23;95252.94;4939552;28;20204;-93
2023/03/10 10:24:40;;;;;;;1.87;1.77;;;;;;;18.23;46.38;95154.34;4957954;28;20227;-93
2023/03/10 10:27:07;;;;;;;1.70;1.60;;;;;;;18.44;46.38;95213.78;4957096;28;20232;-93
2023/03/10 10:29:35;;;;;;;1.60;1.50;;;;;;;18.30;46.38;95176.38;4952960;28;20653;-93
2023/03/10 10:32:09;;;;;;;1.90;1.80;;;;;;;18.54;46.47;95201.97;4957981;28;20254;-93
2023/03/10 10:34:40;;;;;;;1.73;1.63;;;;;;;18.33;46.30;95184.91;4954130;28;20321;-93
2023/03/10 10:37:29;;;;;;;1.50;1.40;;;;;;;19.24;46.49;95318.41;4946362;28;20236;-93
2023/03/10 10:39:57;;;;;;;1.77;1.67;;;;;;;18.00;46.39;95101.69;4959494;28;20215;-93
2023/03/10 10:42:28;;;;;;;1.53;1.43;;;;;;;18.38;46.34;95167.97;4938358;29;20218;-94
2023/03/10 10:44:56;;;;;;;1.37;1.30;;;;;;;16.98;46.67;94917.50;4936553;28;20208;-93
2023/03/10 10:47:25;;;;;;;1.40;1.30;;;;;;;18.90;46.57;95235.16;4937368;29;20230;-93
2023/03/10 10:49:52;;;;;;;1.87;1.77;;;;;;;18.38;46.62;95160.34;4968553;28;20215;-93
2023/03/10 10:52:23;;;;;;;1.57;1.47;;;;;;;18.44;46.64;95169.72;4954341;28;20270;-93
2023/03/10 10:54:55;;;;;;;1.60;1.50;;;;;;;18.60;46.49;95177.41;4947645;29;20224;-94
2023/03/10 10:57:25;;;;;;;1.63;1.53;;;;;;;19.22;46.62;95279.38;4958133;28;20238;-92
2023/03/10 10:59:52;;;;;;;1.60;1.50;;;;;;;18.42;46.47;95154.44;4953725;29;20246;-93
2023/03/10 11:02:23;;;;;;;1.63;1.53;;;;;;;19.21;46.48;95265.81;4940812;28;20262;-93
2023/03/10 11:04:49;;;;;;;1.50;1.40;;;;;;;18.58;46.61;95173.13;4953776;29;20226;-93
2023/03/10 11:07:18;;;;;;;1.60;1.50;;;;;;;18.60;46.46;95167.22;4940211;28;20235;-93
2023/03/10 11:09:46;;;;;;;1.60;1.50;;;;;;;18.64;46.43;95170.63;4972173;28;20244;-93
2023/03/10 11:12:19;;;;;;;1.63;1.53;;;;;;;19.22;46.51;95270.03;4971198;28;20208;-94
2023/03/10 11:15:00;;;;;;;1.50;1.40;;;;;;;19.22;46.46;95271.75;4967355;28;20224;-93
2023/03/10 11:17:48;;;;;;;1.50;1.40;;;;;;;19.22;46.67;95267.50;4945563;29;20251;-93
2023/03/10 11:20:22;;;;;;;1.40;1.30;;;;;;;19.21;46.52;95255.63;4954113;28;20196;-94
2023/03/10 11:22:51;;;;;;;1.60;1.50;;;;;;;19.21;47.00;95247.97;4987658;28;20210;-93
2023/03/10 11:25:46;;;;;;;1.50;1.40;;;;;;;17.66;46.52;94989.78;4954762;28;20262;-94
2023/03/10 11:28:39;;;;;;;1.40;1.30;;;;;;;18.24;46.63;95114.50;4940166;28;20730;-93
2023/03/10 11:31:34;;;;;;;1.60;1.50;;;;;;;19.21;46.40;95258.16;4954279;28;20717;-93
2023/03/10 11:34:29;;;;;;;1.60;1.50;;;;;;;19.22;46.56;95242.03;4969246;28;20223;-93
2023/03/10 11:37:33;;;;;;;1.53;1.43;;;;;;;18.59;46.45;95136.72;4937036;29;20224;-94
2023/03/10 11:40:48;;;;;;;1.37;1.27;;;;;;;19.23;46.49;95240.34;4891441;29;20210;-93
2023/03/10 11:43:24;;;;;;;1.40;1.30;;;;;;;19.22;46.47;95236.09;4970429;28;20209;-93
2023/03/10 11:45:53;;;;;;;1.50;1.40;;;;;;;18.60;46.44;95120.59;4968766;28;20218;-93